C.kormakitis, Cyprus
Current Conditions -  °F | °C
As of 5:20 PM on Thursday 23 Oct 2014 (Local Time) from LCEN Reporting Station
Few Clouds Few Clouds  
Wind Chill: 77°   Ceiling: Unl
Heat Index: 78°   Visibility: 6mi
Dew Point: 52°   Wind: 12mph
Humidity: 41%   Direction: 300°WNW
Pressure: 29.94"   Gusts: NA
Location:  35.35°N, 32.95°E
Report Text: LCEN 231420Z 30010KT 9999 FEW025 FEW030TCU 25/11 Q1014 NOSIG
Loading
Personal Weather Stations






























Interactive Weather Map
Tropical Storm Tracking
New forecast layout! Learn more

10-Day Weather Forecast

Advertisements
Track Severe Weather on mobile